createdAt,value
2018-08-10T00:00:37.714Z,0.80
2018-08-10T00:03:06.643Z,0.70
2018-08-10T00:05:35.054Z,0.53
2018-08-10T00:08:03.459Z,0.70
2018-08-10T00:10:31.846Z,0.50
2018-08-10T00:13:00.270Z,0.47
2018-08-10T00:15:28.657Z,0.35
2018-08-10T00:17:57.019Z,0.50
2018-08-10T00:20:25.412Z,0.50
2018-08-10T00:22:53.801Z,0.40
2018-08-10T00:25:22.200Z,0.50
2018-08-10T00:27:50.545Z,0.30
2018-08-10T00:30:19.618Z,0.30
2018-08-10T00:32:49.531Z,0.40
2018-08-10T00:35:18.060Z,0.40
2018-08-10T00:37:47.666Z,0.40
2018-08-10T00:40:19.500Z,0.37
2018-08-10T00:42:47.969Z,0.30
2018-08-10T00:45:17.146Z,0.40
2018-08-10T00:47:46.005Z,0.40
2018-08-10T00:50:15.264Z,0.47
2018-08-10T00:52:44.637Z,0.47
2018-08-10T00:55:14.410Z,0.37
2018-08-10T00:57:43.161Z,0.40
2018-08-10T01:00:13.429Z,0.50
2018-08-10T01:02:42.000Z,0.40
2018-08-10T01:05:10.930Z,0.33
2018-08-10T01:07:39.366Z,0.30
2018-08-10T01:10:12.420Z,0.50
2018-08-10T01:12:41.317Z,0.40
2018-08-10T01:15:12.082Z,0.43
2018-08-10T01:17:40.773Z,0.50
2018-08-10T01:20:24.596Z,0.30
2018-08-10T01:22:58.468Z,0.30
2018-08-10T01:25:27.757Z,0.30
2018-08-10T01:27:58.585Z,0.50
2018-08-10T01:30:28.531Z,0.30
2018-08-10T01:32:57.247Z,0.40
2018-08-10T01:35:26.344Z,0.53
2018-08-10T01:37:55.834Z,0.50
2018-08-10T01:40:24.250Z,0.30
2018-08-10T01:42:52.672Z,0.47
2018-08-10T01:45:21.974Z,0.50
2018-08-10T01:47:50.660Z,0.43
2018-08-10T01:50:19.082Z,0.43
2018-08-10T01:52:47.471Z,0.50
2018-08-10T01:55:15.896Z,0.50
2018-08-10T01:57:44.307Z,0.40
2018-08-10T02:00:12.822Z,0.40
2018-08-10T02:02:41.258Z,0.40
2018-08-10T02:05:11.560Z,0.60
2018-08-10T02:07:40.535Z,0.50
2018-08-10T02:10:11.300Z,0.50
2018-08-10T02:12:40.377Z,0.50
2018-08-10T02:15:11.038Z,0.40
2018-08-10T02:17:39.650Z,0.53
2018-08-10T02:20:10.051Z,0.40
2018-08-10T02:22:38.507Z,0.50
2018-08-10T02:25:08.725Z,0.50
2018-08-10T02:27:37.157Z,0.40
2018-08-10T02:30:07.031Z,0.55
2018-08-10T02:32:35.399Z,0.50
2018-08-10T02:35:03.858Z,0.60
2018-08-10T02:37:32.259Z,0.50
2018-08-10T02:40:00.663Z,0.60
2018-08-10T02:42:29.006Z,0.70
2018-08-10T02:44:57.466Z,0.70
2018-08-10T02:47:25.884Z,0.60
2018-08-10T02:49:55.810Z,0.60
2018-08-10T02:52:24.534Z,0.50
2018-08-10T02:54:53.494Z,0.70
2018-08-10T02:57:22.136Z,0.60
2018-08-10T02:59:50.547Z,0.60
2018-08-10T03:02:19.091Z,0.50
2018-08-10T03:04:47.536Z,0.70
2018-08-10T03:07:16.187Z,0.50
2018-08-10T03:09:44.598Z,0.87
2018-08-10T03:12:13.725Z,0.80
2018-08-10T03:14:42.793Z,0.50
2018-08-10T03:17:11.605Z,0.80
2018-08-10T03:19:39.986Z,0.70
2018-08-10T03:22:08.629Z,0.60
2018-08-10T03:24:37.485Z,0.73
2018-08-10T03:27:06.606Z,0.60
2018-08-10T03:29:35.281Z,0.67
2018-08-10T03:32:03.770Z,0.77
2018-08-10T03:34:32.193Z,0.70
2018-08-10T03:37:00.672Z,0.63
2018-08-10T03:39:29.111Z,0.70
2018-08-10T03:41:57.609Z,0.50
2018-08-10T03:44:25.986Z,0.60
2018-08-10T03:46:54.383Z,0.90
2018-08-10T03:49:22.816Z,0.80
2018-08-10T03:51:51.227Z,0.80
2018-08-10T03:54:19.635Z,1.00
2018-08-10T03:56:48.022Z,0.83
2018-08-10T03:59:16.398Z,0.70
2018-08-10T04:01:44.904Z,0.60
2018-08-10T04:04:13.733Z,0.70
2018-08-10T04:06:42.137Z,0.97
2018-08-10T04:09:11.714Z,0.80
2018-08-10T04:11:40.637Z,1.00
2018-08-10T04:14:09.807Z,0.90
2018-08-10T04:16:38.223Z,0.70
2018-08-10T04:19:06.668Z,0.80
2018-08-10T04:21:35.059Z,0.90
2018-08-10T04:24:03.506Z,0.70
2018-08-10T04:26:31.915Z,1.10
2018-08-10T04:29:00.374Z,0.90
2018-08-10T04:31:28.746Z,0.97
2018-08-10T04:33:57.231Z,0.90
2018-08-10T04:36:25.656Z,0.80
2018-08-10T04:38:54.136Z,0.80
2018-08-10T04:41:22.478Z,0.93
2018-08-10T04:43:50.901Z,1.10
2018-08-10T04:46:19.286Z,1.10
2018-08-10T04:48:47.736Z,0.90
2018-08-10T04:51:16.139Z,0.80
2018-08-10T04:53:44.562Z,0.90
2018-08-10T04:56:12.991Z,0.83
2018-08-10T04:58:41.418Z,1.10
2018-08-10T05:01:09.808Z,1.30
2018-08-10T05:03:38.293Z,1.30
2018-08-10T05:06:06.693Z,1.10
2018-08-10T05:08:35.147Z,1.30
2018-08-10T05:11:03.574Z,0.90
2018-08-10T05:13:32.068Z,1.17
2018-08-10T05:16:00.584Z,1.20
2018-08-10T05:18:29.097Z,1.27
2018-08-10T05:20:57.463Z,1.57
2018-08-10T05:23:25.869Z,1.70
2018-08-10T05:25:54.341Z,1.50
2018-08-10T05:28:22.717Z,1.70
2018-08-10T05:30:51.220Z,1.40
2018-08-10T05:33:19.635Z,1.50
2018-08-10T05:35:48.052Z,1.50
2018-08-10T05:38:16.528Z,1.60
2018-08-10T05:40:44.938Z,1.80
2018-08-10T05:43:13.404Z,1.60
2018-08-10T05:45:41.917Z,1.40
2018-08-10T05:48:10.432Z,1.57
2018-08-10T05:50:38.831Z,1.47
2018-08-10T05:53:07.224Z,1.97
2018-08-10T05:55:35.650Z,1.43
2018-08-10T05:58:04.059Z,1.67
2018-08-10T06:00:32.616Z,1.50
2018-08-10T06:03:00.999Z,2.60
2018-08-10T06:05:29.393Z,2.10
2018-08-10T06:07:57.816Z,1.30
2018-08-10T06:10:26.202Z,1.80
2018-08-10T06:12:54.647Z,1.47
2018-08-10T06:15:23.082Z,1.75
2018-08-10T06:17:51.447Z,1.92
2018-08-10T06:20:21.051Z,1.92
2018-08-10T06:22:49.454Z,1.60
2018-08-10T06:25:17.887Z,1.55
2018-08-10T06:27:46.373Z,1.70
2018-08-10T06:30:14.744Z,1.60
2018-08-10T06:32:43.118Z,1.70
2018-08-10T06:35:11.560Z,1.65
2018-08-10T06:37:40.058Z,1.90
2018-08-10T06:40:08.530Z,1.50
2018-08-10T06:42:36.923Z,1.05
2018-08-10T06:45:05.726Z,1.50
2018-08-10T06:47:34.029Z,1.20
2018-08-10T06:50:02.531Z,1.50
2018-08-10T06:52:30.901Z,1.30
2018-08-10T06:54:59.343Z,1.00
2018-08-10T06:57:27.813Z,1.20
2018-08-10T06:59:56.272Z,1.10
2018-08-10T07:02:24.976Z,1.22
2018-08-10T07:04:53.404Z,1.10
2018-08-10T07:07:21.897Z,1.40
2018-08-10T07:09:50.293Z,0.80
2018-08-10T07:12:18.726Z,0.90
2018-08-10T07:14:47.175Z,1.05
2018-08-10T07:17:15.638Z,1.10
2018-08-10T07:19:44.079Z,0.98
2018-08-10T07:22:12.576Z,1.27
2018-08-10T07:24:41.020Z,1.15
2018-08-10T07:27:09.493Z,1.20
2018-08-10T07:29:37.971Z,1.50
2018-08-10T07:32:06.428Z,1.40
2018-08-10T07:34:35.024Z,1.50
2018-08-10T07:37:03.617Z,1.57
2018-08-10T07:39:32.019Z,1.35
2018-08-10T07:42:00.473Z,1.10
2018-08-10T07:44:28.903Z,1.40
2018-08-10T07:46:57.426Z,1.30
2018-08-10T07:49:25.850Z,1.12
2018-08-10T07:51:57.180Z,1.20
2018-08-10T07:54:25.798Z,1.10
2018-08-10T07:56:54.226Z,0.70
2018-08-10T07:59:23.214Z,1.17
2018-08-10T08:01:52.059Z,1.07
2018-08-10T08:04:20.482Z,1.02
2018-08-10T08:06:49.031Z,1.00
2018-08-10T08:09:17.478Z,1.20
2018-08-10T08:11:45.886Z,0.90
2018-08-10T08:14:14.383Z,0.90
2018-08-10T08:16:42.861Z,1.17
2018-08-10T08:19:12.531Z,2.30
2018-08-10T08:21:54.525Z,1.10
2018-08-10T08:24:22.977Z,0.72
2018-08-10T08:26:51.434Z,1.12
2018-08-10T08:29:20.001Z,1.40
2018-08-10T08:31:48.485Z,1.00
2018-08-10T08:34:17.168Z,1.32
2018-08-10T08:36:45.610Z,1.40
2018-08-10T08:40:19.020Z,0.80
2018-08-10T08:42:48.302Z,1.02
2018-08-10T08:46:20.097Z,0.93
2018-08-10T08:48:52.458Z,1.10
2018-08-10T08:51:22.597Z,1.17
2018-08-10T08:55:03.895Z,1.10
2018-08-10T08:57:32.796Z,1.12
2018-08-10T09:00:04.462Z,1.30
2018-08-10T09:02:33.356Z,1.10
2018-08-10T09:05:06.788Z,1.02
2018-08-10T09:07:35.540Z,0.95
2018-08-10T09:10:07.129Z,1.20
2018-08-10T09:12:35.527Z,1.62
2018-08-10T09:15:06.827Z,1.10
2018-08-10T09:17:35.692Z,2.05
2018-08-10T09:20:05.353Z,1.30
2018-08-10T09:22:33.860Z,1.40
2018-08-10T09:25:02.496Z,1.20
2018-08-10T09:27:32.028Z,1.20
2018-08-10T09:30:00.544Z,1.30
2018-08-10T09:32:29.035Z,1.10
2018-08-10T09:34:57.784Z,0.90
2018-08-10T09:37:26.270Z,1.10
2018-08-10T09:39:54.686Z,1.10
2018-08-10T09:42:23.146Z,1.65
2018-08-10T09:44:51.597Z,1.20
2018-08-10T09:47:20.583Z,1.10
2018-08-10T09:49:49.857Z,0.98
2018-08-10T09:52:18.433Z,1.25
2018-08-10T09:55:22.669Z,1.10
2018-08-10T09:57:52.589Z,1.30
2018-08-10T10:00:26.485Z,1.30
2018-08-10T10:02:59.215Z,0.85
2018-08-10T10:05:27.750Z,1.45
2018-08-10T10:07:56.514Z,1.50
2018-08-10T10:10:25.594Z,1.72
2018-08-10T10:12:54.728Z,1.00
2018-08-10T10:15:23.346Z,0.98
2018-08-10T10:17:52.071Z,1.32
2018-08-10T10:20:20.754Z,1.30
2018-08-10T10:22:51.641Z,1.10
2018-08-10T10:25:20.784Z,0.90
2018-08-10T10:27:49.489Z,1.05
2018-08-10T10:30:18.063Z,0.85
2018-08-10T10:32:46.712Z,1.02
2018-08-10T10:35:15.224Z,0.98
2018-08-10T10:37:43.776Z,2.02
2018-08-10T10:40:12.667Z,1.02
2018-08-10T10:42:41.388Z,1.45
2018-08-10T10:45:12.598Z,1.25
2018-08-10T10:47:42.018Z,1.20
2018-08-10T10:50:11.491Z,1.10
2018-08-10T10:52:41.172Z,0.80
2018-08-10T10:55:11.335Z,1.00
2018-08-10T10:57:40.436Z,1.00
2018-08-10T11:00:11.405Z,1.00
2018-08-10T11:02:40.131Z,1.10
2018-08-10T11:05:09.080Z,0.82
2018-08-10T11:07:38.055Z,0.90
2018-08-10T11:10:08.310Z,0.80
2018-08-10T11:12:37.312Z,0.70
2018-08-10T11:15:06.007Z,0.80
2018-08-10T11:17:34.540Z,1.00
2018-08-10T11:20:03.055Z,0.93
2018-08-10T11:22:31.470Z,0.90
2018-08-10T11:24:59.923Z,0.90
2018-08-10T11:27:28.444Z,0.88
2018-08-10T11:29:57.109Z,1.00
2018-08-10T11:32:25.943Z,0.70
2018-08-10T11:34:54.411Z,0.80
2018-08-10T11:37:23.079Z,0.78
2018-08-10T11:39:51.733Z,0.70
2018-08-10T11:42:20.214Z,1.17
2018-08-10T11:44:49.519Z,0.70
2018-08-10T11:47:18.013Z,0.70
2018-08-10T11:49:47.238Z,0.80
2018-08-10T11:52:51.138Z,1.00
2018-08-10T11:55:19.667Z,0.80
2018-08-10T11:57:48.083Z,0.90
2018-08-10T12:00:16.544Z,1.12
2018-08-10T12:02:45.025Z,1.00
2018-08-10T12:05:14.013Z,0.90
2018-08-10T12:07:42.527Z,0.80
2018-08-10T12:10:10.952Z,0.80
2018-08-10T12:12:39.874Z,0.80
2018-08-10T12:15:11.370Z,0.70
2018-08-10T12:17:39.829Z,0.70
2018-08-10T12:20:09.071Z,0.88
2018-08-10T12:22:37.695Z,0.60
2018-08-10T12:25:06.290Z,0.78
2018-08-10T12:27:35.528Z,0.80
2018-08-10T12:30:04.523Z,0.70
2018-08-10T12:32:32.958Z,0.60
2018-08-10T12:35:01.440Z,0.50
2018-08-10T12:37:30.681Z,0.70
2018-08-10T12:39:59.204Z,0.80
2018-08-10T12:42:27.943Z,0.60
2018-08-10T12:44:56.395Z,0.50
2018-08-10T12:47:25.089Z,0.60
2018-08-10T12:49:53.533Z,0.82
2018-08-10T12:52:21.965Z,0.60
2018-08-10T12:54:50.681Z,0.70
2018-08-10T12:57:19.226Z,0.80
2018-08-10T12:59:48.073Z,0.70
2018-08-10T13:02:16.632Z,0.80
2018-08-10T13:04:45.079Z,0.60
2018-08-10T13:07:13.540Z,0.78
2018-08-10T13:09:42.799Z,0.80
2018-08-10T13:12:11.615Z,1.00
2018-08-10T13:14:40.120Z,1.07
2018-08-10T13:17:08.790Z,0.95
2018-08-10T13:19:37.475Z,0.80
2018-08-10T13:22:06.504Z,1.00
2018-08-10T13:24:35.198Z,0.95
2018-08-10T13:27:03.854Z,1.10
2018-08-10T13:29:32.443Z,0.80
2018-08-10T13:32:00.984Z,0.80
2018-08-10T13:34:29.939Z,0.80
2018-08-10T13:36:58.608Z,0.60
2018-08-10T13:39:27.079Z,0.85
2018-08-10T13:41:55.815Z,0.80
2018-08-10T13:44:24.252Z,0.85
2018-08-10T13:46:52.722Z,0.70
2018-08-10T13:49:21.301Z,0.53
2018-08-10T13:51:49.739Z,0.45
2018-08-10T13:54:24.864Z,0.40
2018-08-10T13:56:53.420Z,0.62
2018-08-10T13:59:21.854Z,0.50
2018-08-10T14:01:50.644Z,0.70
2018-08-10T14:04:22.145Z,0.60
2018-08-10T14:06:52.879Z,0.62
2018-08-10T14:09:21.745Z,0.42
2018-08-10T14:11:50.157Z,0.47
2018-08-10T14:14:18.755Z,0.62
2018-08-10T14:16:48.362Z,0.88
2018-08-10T14:19:16.789Z,0.40
2018-08-10T14:21:45.210Z,0.70
2018-08-10T14:24:13.765Z,0.62
2018-08-10T14:26:42.599Z,0.80
2018-08-10T14:29:11.092Z,1.00
2018-08-10T14:31:39.752Z,0.80
2018-08-10T14:34:08.189Z,0.90
2018-08-10T14:36:36.688Z,0.62
2018-08-10T14:39:08.514Z,0.62
2018-08-10T14:41:37.524Z,0.78
2018-08-10T14:44:06.276Z,0.60
2018-08-10T14:46:35.014Z,0.50
2018-08-10T14:49:03.746Z,0.60
2018-08-10T14:51:32.210Z,0.68
2018-08-10T14:54:01.064Z,0.80
2018-08-10T14:56:29.477Z,0.88
2018-08-10T14:58:58.037Z,0.90
2018-08-10T15:01:26.598Z,0.70
2018-08-10T15:03:55.047Z,0.55
2018-08-10T15:06:23.568Z,0.62
2018-08-10T15:08:51.966Z,0.50
2018-08-10T15:11:20.375Z,0.80
2018-08-10T15:13:48.863Z,0.60
2018-08-10T15:16:17.324Z,0.72
2018-08-10T15:18:45.803Z,0.68
2018-08-10T15:21:14.337Z,0.50
2018-08-10T15:23:42.843Z,0.70
2018-08-10T15:26:11.333Z,0.80
2018-08-10T15:28:39.796Z,0.75
2018-08-10T15:31:08.782Z,0.72
2018-08-10T15:33:37.389Z,0.60
2018-08-10T15:36:05.969Z,0.60
2018-08-10T15:38:34.414Z,0.72
2018-08-10T15:41:02.947Z,1.12
2018-08-10T15:43:31.446Z,0.80
2018-08-10T15:45:59.851Z,1.10
2018-08-10T15:48:28.849Z,0.68
2018-08-10T15:50:57.272Z,0.68
2018-08-10T15:53:25.759Z,0.60
2018-08-10T15:55:54.183Z,0.50
2018-08-10T15:58:22.789Z,0.70
2018-08-10T16:00:51.223Z,0.68
2018-08-10T16:03:19.778Z,0.70
2018-08-10T16:05:48.810Z,0.70
2018-08-10T16:08:17.534Z,0.65
2018-08-10T16:10:45.954Z,0.60
2018-08-10T16:13:14.442Z,0.60
2018-08-10T16:15:42.899Z,0.80
2018-08-10T16:18:11.461Z,0.72
2018-08-10T16:20:39.850Z,0.57
2018-08-10T16:23:08.420Z,0.50
2018-08-10T16:25:36.970Z,0.57
2018-08-10T16:28:05.454Z,0.70
2018-08-10T16:30:33.923Z,0.70
2018-08-10T16:33:02.510Z,0.90
2018-08-10T16:35:31.023Z,0.80
2018-08-10T16:37:59.524Z,0.62
2018-08-10T16:40:28.251Z,0.90
2018-08-10T16:42:56.646Z,0.50
2018-08-10T16:45:25.297Z,0.82
2018-08-10T16:47:53.820Z,1.30
2018-08-10T16:50:22.255Z,1.00
2018-08-10T16:52:50.775Z,0.90
2018-08-10T16:55:20.531Z,0.62
2018-08-10T16:57:49.901Z,0.50
2018-08-10T17:00:19.775Z,0.80
2018-08-10T17:02:48.726Z,0.88
2018-08-10T17:05:17.253Z,0.78
2018-08-10T17:07:45.928Z,0.78
2018-08-10T17:10:14.803Z,0.90
2018-08-10T17:12:44.711Z,0.90
2018-08-10T17:15:14.819Z,0.80
2018-08-10T17:17:44.413Z,0.70
2018-08-10T17:20:13.482Z,0.80
2018-08-10T17:22:42.749Z,0.60
2018-08-10T17:25:12.774Z,0.80
2018-08-10T17:27:41.550Z,0.75
2018-08-10T17:30:12.290Z,0.78
2018-08-10T17:32:41.237Z,0.68
2018-08-10T17:35:11.443Z,1.00
2018-08-10T17:37:40.857Z,0.60
2018-08-10T17:40:09.928Z,0.90
2018-08-10T17:42:39.050Z,0.80
2018-08-10T17:45:09.834Z,0.60
2018-08-10T17:47:38.443Z,0.68
2018-08-10T17:50:11.470Z,0.80
2018-08-10T17:52:41.911Z,0.75
2018-08-10T17:55:10.717Z,0.78
2018-08-10T17:57:39.235Z,0.80
2018-08-10T18:00:10.610Z,0.80
2018-08-10T18:02:39.160Z,0.80
2018-08-10T18:05:09.570Z,0.75
2018-08-10T18:07:38.101Z,0.60
2018-08-10T18:10:06.877Z,0.93
2018-08-10T18:12:35.554Z,0.98
2018-08-10T18:15:05.039Z,0.70
2018-08-10T18:17:33.471Z,0.95
2018-08-10T18:20:02.037Z,0.88
2018-08-10T18:22:30.722Z,1.10
2018-08-10T18:24:59.195Z,0.90
2018-08-10T18:27:27.731Z,0.90
2018-08-10T18:29:56.157Z,0.70
2018-08-10T18:32:24.689Z,0.80
2018-08-10T18:34:53.239Z,0.78
2018-08-10T18:37:21.854Z,0.80
2018-08-10T18:39:50.354Z,0.75
2018-08-10T18:42:18.796Z,0.68
2018-08-10T18:44:47.353Z,0.70
2018-08-10T18:47:15.834Z,0.80
2018-08-10T18:49:44.690Z,1.10
2018-08-10T18:52:13.144Z,0.70
2018-08-10T18:54:41.649Z,0.78
2018-08-10T18:57:10.115Z,0.82
2018-08-10T18:59:41.351Z,0.80
2018-08-10T19:02:09.803Z,0.80
2018-08-10T19:04:38.223Z,1.47
2018-08-10T19:07:06.704Z,0.95
2018-08-10T19:09:41.725Z,0.70
2018-08-10T19:12:10.300Z,1.22
2018-08-10T19:14:38.617Z,0.75
2018-08-10T19:17:07.071Z,1.42
2018-08-10T19:19:35.754Z,1.00
2018-08-10T19:22:05.088Z,1.20
2018-08-10T19:24:33.650Z,0.82
2018-08-10T19:27:02.109Z,0.75
2018-08-10T19:29:30.634Z,0.72
2018-08-10T19:31:59.079Z,1.00
2018-08-10T19:34:27.502Z,0.98
2018-08-10T19:36:56.049Z,0.90
2018-08-10T19:39:24.516Z,0.95
2018-08-10T19:41:52.959Z,0.80
2018-08-10T19:44:21.349Z,0.60
2018-08-10T19:46:50.399Z,0.70
2018-08-10T19:49:18.951Z,1.10
2018-08-10T19:51:47.598Z,1.25
2018-08-10T19:54:16.228Z,0.78
2018-08-10T19:56:44.931Z,1.00
2018-08-10T19:59:13.425Z,0.85
2018-08-10T20:01:42.044Z,0.90
2018-08-10T20:04:10.551Z,1.00
2018-08-10T20:06:39.215Z,0.88
2018-08-10T20:09:10.392Z,0.93
2018-08-10T20:11:38.924Z,1.10
2018-08-10T20:14:07.943Z,1.00
2018-08-10T20:16:36.408Z,1.30
2018-08-10T20:19:04.887Z,0.95
2018-08-10T20:21:33.420Z,0.85
2018-08-10T20:24:02.074Z,0.80
2018-08-10T20:26:31.004Z,1.17
2018-08-10T20:28:59.530Z,0.70
2018-08-10T20:31:28.316Z,0.85
2018-08-10T20:33:56.787Z,0.93
2018-08-10T20:36:25.246Z,1.15
2018-08-10T20:38:53.756Z,1.00
2018-08-10T20:41:22.303Z,1.30
2018-08-10T20:43:53.774Z,0.93
2018-08-10T20:46:22.319Z,0.78
2018-08-10T20:48:51.000Z,0.78
2018-08-10T20:51:19.459Z,0.70
2018-08-10T20:53:47.912Z,0.82
2018-08-10T20:56:16.410Z,1.30
2018-08-10T20:58:44.869Z,1.00
2018-08-10T21:01:13.361Z,0.80
2018-08-10T21:03:41.772Z,0.98
2018-08-10T21:06:10.430Z,0.90
2018-08-10T21:08:38.806Z,0.85
2018-08-10T21:11:07.208Z,1.00
2018-08-10T21:13:35.742Z,0.93
2018-08-10T21:16:04.196Z,0.90
2018-08-10T21:18:32.714Z,0.82
2018-08-10T21:21:01.237Z,0.70
2018-08-10T21:23:29.827Z,0.98
2018-08-10T21:25:58.232Z,1.12
2018-08-10T21:28:26.691Z,0.70
2018-08-10T21:30:55.147Z,0.70
2018-08-10T21:33:23.653Z,0.62
2018-08-10T21:35:52.308Z,1.67
2018-08-10T21:38:20.895Z,1.00
2018-08-10T21:40:49.302Z,0.93
2018-08-10T21:43:17.835Z,0.90
2018-08-10T21:45:52.847Z,0.82
2018-08-10T21:48:21.348Z,1.05
2018-08-10T21:50:50.217Z,1.00
2018-08-10T21:53:18.633Z,0.90
2018-08-10T21:55:47.047Z,1.15
2018-08-10T21:58:15.615Z,0.80
2018-08-10T22:00:51.122Z,1.00
2018-08-10T22:03:20.674Z,0.80
2018-08-10T22:05:49.527Z,0.80
2018-08-10T22:08:18.958Z,0.80
2018-08-10T22:10:47.858Z,1.10
2018-08-10T22:13:21.687Z,1.00
2018-08-10T22:15:55.588Z,0.90
2018-08-10T22:18:29.385Z,0.90
2018-08-10T22:20:58.158Z,1.02
2018-08-10T22:23:27.845Z,1.27
2018-08-10T22:25:57.037Z,0.70
2018-08-10T22:28:25.462Z,1.10
2018-08-10T22:30:53.876Z,0.82
2018-08-10T22:33:22.383Z,0.82
2018-08-10T22:35:50.864Z,0.70
2018-08-10T22:38:19.348Z,0.70
2018-08-10T22:40:47.801Z,0.75
2018-08-10T22:43:16.227Z,1.00
2018-08-10T22:45:44.683Z,0.65
2018-08-10T22:48:13.203Z,0.80
2018-08-10T22:50:42.205Z,1.02
2018-08-10T22:53:10.770Z,0.98
2018-08-10T22:55:39.182Z,1.00
2018-08-10T22:58:07.671Z,0.98
2018-08-10T23:00:36.110Z,0.80
2018-08-10T23:03:04.696Z,0.90
2018-08-10T23:05:33.102Z,0.80
2018-08-10T23:08:01.930Z,0.93
2018-08-10T23:10:30.461Z,0.88
2018-08-10T23:12:58.926Z,1.00
2018-08-10T23:15:27.387Z,0.90
2018-08-10T23:17:55.975Z,0.93
2018-08-10T23:20:24.486Z,1.20
2018-08-10T23:22:52.926Z,0.80
2018-08-10T23:25:21.403Z,0.70
2018-08-10T23:27:49.827Z,0.80
2018-08-10T23:30:18.305Z,0.98
2018-08-10T23:32:46.780Z,0.90
2018-08-10T23:35:15.230Z,1.07
2018-08-10T23:37:43.709Z,0.98
2018-08-10T23:40:13.737Z,1.07
2018-08-10T23:42:42.395Z,1.00
2018-08-10T23:45:12.274Z,0.98
2018-08-10T23:47:41.458Z,0.90
2018-08-10T23:50:12.969Z,1.02
2018-08-10T23:52:41.745Z,1.10
2018-08-10T23:55:10.843Z,0.90
2018-08-10T23:57:40.420Z,1.00
